createdAt,value
2023-03-18T00:01:43.077Z,12.30
2023-03-18T00:04:10.018Z,12.75
2023-03-18T00:06:38.600Z,8.27
2023-03-18T00:09:06.718Z,12.18
2023-03-18T00:11:35.796Z,15.05
2023-03-18T00:14:02.904Z,14.83
2023-03-18T00:16:50.956Z,15.02
2023-03-18T00:21:44.943Z,18.15
2023-03-18T00:24:14.317Z,22.55
2023-03-18T00:26:42.536Z,17.23
2023-03-18T00:29:10.440Z,15.48
2023-03-18T00:31:40.865Z,12.10
2023-03-18T00:34:08.717Z,14.27
2023-03-18T00:36:36.716Z,13.38
2023-03-18T00:39:04.306Z,8.55
2023-03-18T00:41:37.200Z,9.90
2023-03-18T00:44:08.479Z,14.55
2023-03-18T00:46:42.559Z,10.98
2023-03-18T00:49:14.171Z,10.18
2023-03-18T00:51:42.466Z,10.50
2023-03-18T00:54:16.699Z,11.50
2023-03-18T00:56:45.623Z,8.43
2023-03-18T00:59:15.079Z,12.73
2023-03-18T01:01:44.431Z,8.73
2023-03-18T01:04:11.948Z,7.18
2023-03-18T01:06:39.639Z,9.30
2023-03-18T01:09:10.202Z,10.32
2023-03-18T01:11:37.139Z,8.85
2023-03-18T01:14:04.140Z,8.07
2023-03-18T01:16:31.467Z,7.07
2023-03-18T01:18:58.596Z,8.10
2023-03-18T01:21:25.709Z,8.68
2023-03-18T01:23:52.638Z,10.18
2023-03-18T01:26:20.603Z,8.15
2023-03-18T01:28:48.266Z,8.57
2023-03-18T01:31:15.785Z,7.40
2023-03-18T01:33:42.800Z,7.12
2023-03-18T01:36:10.791Z,9.48
2023-03-18T01:38:39.038Z,7.70
2023-03-18T01:41:05.944Z,10.02
2023-03-18T01:43:36.204Z,9.70
2023-03-18T01:46:45.101Z,10.18
2023-03-18T01:49:22.902Z,7.43
2023-03-18T01:52:05.641Z,9.05
2023-03-18T01:54:36.474Z,8.48
2023-03-18T01:57:03.899Z,9.25
2023-03-18T01:59:34.398Z,6.78
2023-03-18T02:02:27.762Z,9.00
2023-03-18T02:04:57.363Z,8.38
2023-03-18T02:07:30.136Z,6.87
2023-03-18T02:10:00.516Z,11.52
2023-03-18T02:12:34.041Z,7.32
2023-03-18T02:15:04.297Z,8.95
2023-03-18T02:17:36.637Z,7.07
2023-03-18T02:20:38.877Z,9.45
2023-03-18T02:23:27.561Z,7.82
2023-03-18T02:26:13.137Z,7.68
2023-03-18T02:28:47.443Z,8.00
2023-03-18T02:31:20.836Z,8.75
2023-03-18T02:33:49.795Z,6.22
2023-03-18T02:36:22.621Z,7.73
2023-03-18T02:38:49.927Z,8.45
2023-03-18T02:41:23.556Z,6.78
2023-03-18T02:43:51.577Z,10.10
2023-03-18T02:46:31.335Z,6.60
2023-03-18T02:51:29.478Z,9.10
2023-03-18T02:54:02.096Z,8.38
2023-03-18T02:56:29.713Z,9.98
2023-03-18T02:58:58.058Z,9.38
2023-03-18T03:01:30.252Z,7.78
2023-03-18T03:03:57.387Z,7.85
2023-03-18T03:06:28.320Z,9.45
2023-03-18T03:09:03.161Z,8.48
2023-03-18T03:11:32.157Z,6.60
2023-03-18T03:13:59.305Z,8.17
2023-03-18T03:16:26.359Z,7.30
2023-03-18T03:18:53.402Z,6.22
2023-03-18T03:21:20.764Z,10.07
2023-03-18T03:23:52.520Z,6.82
2023-03-18T03:26:19.744Z,6.90
2023-03-18T03:28:47.506Z,10.13
2023-03-18T03:31:14.683Z,10.05
2023-03-18T03:33:48.242Z,9.43
2023-03-18T03:36:24.188Z,7.10
2023-03-18T03:38:53.744Z,6.57
2023-03-18T03:41:22.415Z,8.77
2023-03-18T03:43:49.901Z,8.38
2023-03-18T03:46:17.543Z,8.68
2023-03-18T03:48:45.751Z,9.73
2023-03-18T03:51:15.933Z,15.80
2023-03-18T03:53:45.863Z,8.70
2023-03-18T03:56:15.877Z,7.72
2023-03-18T03:58:43.025Z,12.10
2023-03-18T04:01:10.101Z,11.98
2023-03-18T04:03:39.702Z,8.95
2023-03-18T04:06:08.268Z,11.88
2023-03-18T04:08:35.276Z,8.45
2023-03-18T04:11:04.167Z,6.62
2023-03-18T04:13:31.405Z,7.47
2023-03-18T04:15:58.523Z,9.52
2023-03-18T04:18:32.180Z,13.80
2023-03-18T04:20:59.356Z,9.50
2023-03-18T04:23:29.587Z,6.57
2023-03-18T04:25:59.044Z,7.68
2023-03-18T04:28:29.760Z,11.23
2023-03-18T04:30:56.751Z,8.95
2023-03-18T04:33:27.003Z,8.57
2023-03-18T04:36:00.123Z,7.37
2023-03-18T04:38:28.829Z,7.22
2023-03-18T04:40:55.977Z,7.62
2023-03-18T04:43:23.120Z,7.60
2023-03-18T04:45:50.436Z,7.35
2023-03-18T04:48:17.516Z,8.77
2023-03-18T04:50:45.417Z,8.70
2023-03-18T04:53:14.175Z,9.23
2023-03-18T04:55:41.419Z,9.23
2023-03-18T04:58:08.618Z,8.60
2023-03-18T05:00:35.831Z,8.13
2023-03-18T05:03:05.556Z,8.07
2023-03-18T05:05:32.936Z,8.95
2023-03-18T05:08:00.457Z,11.15
2023-03-18T05:10:27.645Z,8.82
2023-03-18T05:12:54.704Z,8.65
2023-03-18T05:15:21.735Z,8.57
2023-03-18T05:17:48.775Z,13.98
2023-03-18T05:20:15.925Z,7.72
2023-03-18T05:22:43.140Z,9.38
2023-03-18T05:25:11.717Z,7.90
2023-03-18T05:27:38.771Z,10.23
2023-03-18T05:30:07.922Z,10.23
2023-03-18T05:32:34.962Z,8.60
2023-03-18T05:35:02.319Z,11.45
2023-03-18T05:37:29.557Z,11.32
2023-03-18T05:39:56.821Z,12.32
2023-03-18T05:42:24.163Z,7.95
2023-03-18T05:44:51.115Z,11.45
2023-03-18T05:47:18.268Z,11.25
2023-03-18T05:49:45.245Z,13.60
2023-03-18T05:52:12.456Z,9.30
2023-03-18T05:54:39.770Z,9.05
2023-03-18T05:57:07.686Z,11.27
2023-03-18T05:59:34.935Z,9.73
2023-03-18T06:02:02.270Z,10.75
2023-03-18T06:04:29.480Z,8.27
2023-03-18T06:06:57.158Z,11.23
2023-03-18T06:09:26.158Z,9.65
2023-03-18T06:11:54.427Z,9.33
2023-03-18T06:14:21.401Z,10.27
2023-03-18T06:16:48.397Z,8.88
2023-03-18T06:19:15.486Z,13.07
2023-03-18T06:21:42.765Z,16.92
2023-03-18T06:24:09.860Z,9.50
2023-03-18T06:26:36.939Z,9.43
2023-03-18T06:29:05.446Z,11.68
2023-03-18T06:31:32.578Z,11.75
2023-03-18T06:34:01.298Z,8.48
2023-03-18T06:36:28.378Z,9.52
2023-03-18T06:38:56.206Z,13.18
2023-03-18T06:41:23.401Z,11.12
2023-03-18T06:43:51.937Z,9.50
2023-03-18T06:46:19.021Z,10.07
2023-03-18T06:48:46.707Z,8.25
2023-03-18T06:51:13.727Z,10.35
2023-03-18T06:53:40.720Z,9.68
2023-03-18T06:56:08.177Z,9.75
2023-03-18T06:58:35.119Z,9.55
2023-03-18T07:01:03.163Z,24.48
2023-03-18T07:03:30.205Z,8.57
2023-03-18T07:05:57.519Z,10.35
2023-03-18T07:08:24.502Z,6.65
2023-03-18T07:10:57.423Z,14.50
2023-03-18T07:13:25.188Z,32.72
2023-03-18T07:15:52.437Z,15.18
2023-03-18T07:18:19.888Z,12.82
2023-03-18T07:20:46.819Z,14.35
2023-03-18T07:23:13.761Z,9.93
2023-03-18T07:25:42.201Z,11.07
2023-03-18T07:28:09.579Z,13.32
2023-03-18T07:30:36.558Z,9.35
2023-03-18T07:33:04.223Z,7.47
2023-03-18T07:35:31.600Z,13.07
2023-03-18T07:37:59.018Z,7.65
2023-03-18T07:40:26.176Z,8.00
2023-03-18T07:42:53.826Z,8.57
2023-03-18T07:45:20.955Z,9.98
2023-03-18T07:47:48.026Z,9.05
2023-03-18T07:50:15.305Z,7.57
2023-03-18T07:52:42.234Z,7.25
2023-03-18T07:55:09.521Z,7.03
2023-03-18T07:57:37.144Z,9.27
2023-03-18T08:00:06.400Z,6.60
2023-03-18T08:02:34.257Z,16.52
2023-03-18T08:05:01.500Z,9.35
2023-03-18T08:07:28.536Z,15.05
2023-03-18T08:09:55.726Z,8.18
2023-03-18T08:12:22.668Z,7.87
2023-03-18T08:14:49.959Z,10.65
2023-03-18T08:17:17.299Z,9.60
2023-03-18T08:19:44.691Z,7.10
2023-03-18T08:22:11.664Z,7.40
2023-03-18T08:24:38.899Z,8.57
2023-03-18T08:27:06.431Z,8.65
2023-03-18T08:29:33.855Z,9.20
2023-03-18T08:32:01.538Z,6.22
2023-03-18T08:34:28.485Z,9.32
2023-03-18T08:36:55.444Z,8.43
2023-03-18T08:39:22.922Z,9.57
2023-03-18T08:41:50.118Z,6.43
2023-03-18T08:44:18.261Z,6.97
2023-03-18T08:46:45.278Z,8.70
2023-03-18T08:49:14.330Z,8.90
2023-03-18T08:51:41.499Z,9.73
2023-03-18T08:54:08.661Z,6.65
2023-03-18T08:56:35.868Z,7.82
2023-03-18T08:59:02.862Z,8.50
2023-03-18T09:01:30.498Z,6.72
2023-03-18T09:03:59.363Z,8.63
2023-03-18T09:06:27.940Z,6.55
2023-03-18T09:08:54.881Z,9.05
2023-03-18T09:11:22.086Z,6.30
2023-03-18T09:13:48.959Z,8.52
2023-03-18T09:16:16.159Z,8.70
2023-03-18T09:18:45.204Z,11.40
2023-03-18T09:21:12.871Z,7.43
2023-03-18T09:23:39.923Z,9.40
2023-03-18T09:26:06.906Z,7.45
2023-03-18T09:28:33.796Z,11.38
2023-03-18T09:31:01.925Z,9.48
2023-03-18T09:33:28.944Z,10.77
2023-03-18T09:35:55.986Z,10.43
2023-03-18T09:38:22.896Z,10.02
2023-03-18T09:41:11.236Z,8.20
2023-03-18T09:43:47.173Z,9.52
2023-03-18T09:46:26.588Z,6.80
2023-03-18T09:49:05.115Z,8.60
2023-03-18T09:52:04.558Z,7.45
2023-03-18T09:54:41.961Z,9.23
2023-03-18T09:57:19.863Z,8.88
2023-03-18T09:59:54.977Z,8.57
2023-03-18T10:02:36.919Z,8.02
2023-03-18T10:05:16.935Z,6.47
2023-03-18T10:07:48.675Z,8.27
2023-03-18T10:10:26.557Z,9.73
2023-03-18T10:13:05.633Z,9.45
2023-03-18T10:15:39.664Z,8.63
2023-03-18T10:18:12.436Z,10.63
2023-03-18T10:21:20.774Z,9.27
2023-03-18T10:23:54.273Z,8.98
2023-03-18T10:26:27.802Z,8.68
2023-03-18T10:29:03.941Z,9.00
2023-03-18T10:31:50.385Z,11.73
2023-03-18T10:34:22.302Z,10.18
2023-03-18T10:37:34.639Z,9.13
2023-03-18T10:40:02.599Z,6.70
2023-03-18T10:42:32.215Z,9.95
2023-03-18T10:45:20.614Z,12.52
2023-03-18T10:47:57.080Z,6.57
2023-03-18T10:50:32.776Z,7.57
2023-03-18T10:53:18.278Z,7.47
2023-03-18T10:56:06.740Z,6.12
2023-03-18T10:58:34.253Z,8.82
2023-03-18T11:01:01.182Z,9.43
2023-03-18T11:03:32.180Z,7.47
2023-03-18T11:06:04.326Z,7.25
2023-03-18T11:08:35.707Z,9.63
2023-03-18T11:11:17.801Z,10.63
2023-03-18T11:13:53.809Z,7.25
2023-03-18T11:16:45.587Z,11.02
2023-03-18T11:19:25.660Z,8.35
2023-03-18T11:22:02.425Z,7.18
2023-03-18T11:24:36.572Z,9.30
2023-03-18T11:27:04.456Z,9.63
2023-03-18T11:29:33.618Z,9.38
2023-03-18T11:32:02.111Z,7.25
2023-03-18T11:34:32.733Z,7.55
2023-03-18T11:37:04.855Z,10.32
2023-03-18T11:39:37.756Z,10.38
2023-03-18T11:42:19.014Z,7.60
2023-03-18T11:44:46.861Z,10.00
2023-03-18T11:47:35.297Z,7.90
2023-03-18T11:50:04.466Z,7.97
2023-03-18T11:52:44.555Z,9.07
2023-03-18T11:55:20.496Z,8.30
2023-03-18T11:57:59.596Z,11.18
2023-03-18T12:00:37.107Z,10.05
2023-03-18T12:03:26.359Z,8.32
2023-03-18T12:06:12.018Z,9.70
2023-03-18T12:09:03.406Z,9.98
2023-03-18T12:11:57.467Z,9.80
2023-03-18T12:14:53.863Z,9.65
2023-03-18T12:17:40.745Z,7.12
2023-03-18T12:20:46.906Z,10.60
2023-03-18T12:23:30.925Z,9.25
2023-03-18T12:26:23.533Z,8.15
2023-03-18T12:29:16.260Z,9.90
2023-03-18T12:32:19.118Z,8.13
2023-03-18T12:35:18.345Z,9.30
2023-03-18T12:38:14.503Z,9.30
2023-03-18T12:40:47.412Z,9.23
2023-03-18T12:43:40.782Z,10.35
2023-03-18T12:46:44.519Z,7.87
2023-03-18T12:49:22.552Z,8.00
2023-03-18T12:51:58.996Z,10.10
2023-03-18T12:54:31.188Z,9.80
2023-03-18T12:57:08.489Z,8.95
2023-03-18T12:59:51.846Z,8.45
2023-03-18T13:02:34.814Z,8.73
2023-03-18T13:05:07.550Z,10.23
2023-03-18T13:07:46.990Z,8.38
2023-03-18T13:10:24.869Z,7.22
2023-03-18T13:12:56.079Z,7.93
2023-03-18T13:15:45.007Z,9.27
2023-03-18T13:18:21.379Z,9.05
2023-03-18T13:20:52.038Z,8.90
2023-03-18T13:24:04.076Z,8.43
2023-03-18T13:26:45.426Z,7.87
2023-03-18T13:29:39.216Z,6.62
2023-03-18T13:32:18.838Z,7.35
2023-03-18T13:34:52.150Z,7.90
2023-03-18T13:37:57.793Z,13.77
2023-03-18T13:40:56.493Z,6.72
2023-03-18T13:43:25.885Z,7.87
2023-03-18T13:45:57.241Z,10.65
2023-03-18T13:48:32.112Z,7.47
2023-03-18T13:51:14.256Z,8.15
2023-03-18T13:53:50.013Z,6.90
2023-03-18T13:56:30.616Z,10.93
2023-03-18T13:58:59.896Z,5.78
2023-03-18T14:01:33.654Z,8.27
2023-03-18T14:04:20.782Z,7.28
2023-03-18T14:06:57.174Z,10.50
2023-03-18T14:09:35.037Z,6.50
2023-03-18T14:12:17.451Z,6.95
2023-03-18T14:15:06.180Z,8.55
2023-03-18T14:17:48.403Z,9.05
2023-03-18T14:20:15.322Z,9.88
2023-03-18T14:22:43.736Z,8.07
2023-03-18T14:25:27.720Z,10.55
2023-03-18T14:27:59.718Z,7.72
2023-03-18T14:30:33.198Z,7.82
2023-03-18T14:33:05.487Z,7.68
2023-03-18T14:35:54.827Z,8.63
2023-03-18T14:38:40.077Z,12.68
2023-03-18T14:41:17.102Z,11.60
2023-03-18T14:43:54.865Z,8.18
2023-03-18T14:46:33.542Z,8.95
2023-03-18T14:49:00.851Z,9.90
2023-03-18T14:51:31.906Z,8.75
2023-03-18T14:54:12.816Z,9.00
2023-03-18T14:56:42.297Z,9.40
2023-03-18T14:59:15.870Z,8.15
2023-03-18T15:01:48.220Z,6.95
2023-03-18T15:04:25.213Z,13.13
2023-03-18T15:06:54.213Z,7.45
2023-03-18T15:09:30.286Z,11.38
2023-03-18T15:11:57.877Z,10.55
2023-03-18T15:14:28.096Z,7.80
2023-03-18T15:16:57.387Z,6.87
2023-03-18T15:19:25.029Z,10.75
2023-03-18T15:21:52.271Z,7.82
2023-03-18T15:24:23.216Z,12.00
2023-03-18T15:26:59.087Z,20.58
2023-03-18T15:29:35.197Z,8.18
2023-03-18T15:32:26.674Z,8.50
2023-03-18T15:34:56.898Z,7.82
2023-03-18T15:37:41.008Z,7.35
2023-03-18T15:40:44.987Z,5.65
2023-03-18T15:43:13.874Z,7.95
2023-03-18T15:46:01.358Z,6.67
2023-03-18T15:48:41.841Z,6.65
2023-03-18T15:51:40.698Z,13.25
2023-03-18T15:54:20.360Z,8.90
2023-03-18T15:56:49.557Z,8.02
2023-03-18T15:59:24.806Z,7.80
2023-03-18T16:01:54.044Z,6.68
2023-03-18T16:04:22.277Z,7.70
2023-03-18T16:06:49.337Z,4.90
2023-03-18T16:09:21.299Z,5.72
2023-03-18T16:11:59.019Z,6.87
2023-03-18T16:14:39.833Z,6.37
2023-03-18T16:17:06.790Z,6.10
2023-03-18T16:19:34.149Z,8.05
2023-03-18T16:22:01.196Z,6.80
2023-03-18T16:24:28.182Z,6.00
2023-03-18T16:26:56.906Z,9.13
2023-03-18T16:29:38.543Z,6.97
2023-03-18T16:32:06.172Z,6.72
2023-03-18T16:34:33.664Z,6.57
2023-03-18T16:37:01.059Z,7.68
2023-03-18T16:39:34.342Z,7.15
2023-03-18T16:42:04.503Z,11.10
2023-03-18T16:44:33.561Z,8.50
2023-03-18T16:47:02.631Z,8.90
2023-03-18T16:49:34.644Z,7.95
2023-03-18T16:52:04.498Z,9.05
2023-03-18T16:57:04.687Z,12.30
2023-03-18T16:59:36.851Z,7.75
2023-03-18T17:02:05.948Z,10.30
2023-03-18T17:04:35.338Z,9.82
2023-03-18T17:07:04.908Z,12.30
2023-03-18T17:09:32.245Z,13.25
2023-03-18T17:12:06.090Z,8.90
2023-03-18T17:14:34.041Z,9.25
2023-03-18T17:17:05.380Z,11.88
2023-03-18T17:19:32.458Z,22.62
2023-03-18T17:21:59.358Z,24.85
2023-03-18T17:24:26.506Z,42.75
2023-03-18T17:26:56.981Z,42.28
2023-03-18T17:29:26.606Z,54.80
2023-03-18T17:31:56.086Z,58.38
2023-03-18T17:34:24.175Z,50.58
2023-03-18T17:36:51.518Z,62.13
2023-03-18T17:39:18.528Z,17.77
2023-03-18T17:41:45.538Z,15.23
2023-03-18T17:44:29.738Z,14.43
2023-03-18T17:46:57.318Z,36.42
2023-03-18T17:49:27.242Z,50.20
2023-03-18T17:51:56.373Z,72.53
2023-03-18T17:54:27.296Z,54.83
2023-03-18T17:56:56.835Z,43.17
2023-03-18T17:59:24.107Z,28.12
2023-03-18T18:01:51.473Z,32.05
2023-03-18T18:04:20.799Z,31.33
2023-03-18T18:06:49.250Z,27.77
2023-03-18T18:09:16.842Z,36.08
2023-03-18T18:11:47.024Z,38.75
2023-03-18T18:14:26.309Z,44.30
2023-03-18T18:16:56.224Z,60.92
2023-03-18T18:19:23.554Z,46.00
2023-03-18T18:21:51.100Z,81.43
2023-03-18T18:24:24.602Z,329.85
2023-03-18T18:26:52.417Z,147.93
2023-03-18T18:29:22.476Z,34.38
2023-03-18T18:31:49.710Z,18.15
2023-03-18T18:34:17.011Z,13.82
2023-03-18T18:36:45.196Z,15.82
2023-03-18T18:39:12.323Z,103.75
2023-03-18T18:41:39.324Z,68.05
2023-03-18T18:44:07.541Z,380.77
2023-03-18T18:46:35.315Z,216.55
2023-03-18T18:49:02.479Z,231.65
2023-03-18T18:51:29.540Z,289.20
2023-03-18T18:53:56.505Z,216.40
2023-03-18T18:56:37.044Z,222.93
2023-03-18T18:59:22.388Z,298.60
2023-03-18T19:01:53.496Z,120.95
2023-03-18T19:04:22.296Z,72.25
2023-03-18T19:06:51.193Z,87.50
2023-03-18T19:09:26.202Z,83.72
2023-03-18T19:11:56.429Z,71.15
2023-03-18T19:14:26.088Z,38.60
2023-03-18T19:16:54.587Z,52.75
2023-03-18T19:19:26.597Z,63.75
2023-03-18T19:21:53.582Z,42.35
2023-03-18T19:24:27.108Z,50.03
2023-03-18T19:26:56.396Z,84.62
2023-03-18T19:29:23.921Z,67.32
2023-03-18T19:31:50.934Z,33.25
2023-03-18T19:34:19.078Z,30.70
2023-03-18T19:36:48.992Z,34.00
2023-03-18T19:41:45.677Z,26.33
2023-03-18T19:44:18.336Z,27.77
2023-03-18T19:46:46.883Z,29.00
2023-03-18T19:49:19.788Z,30.15
2023-03-18T19:51:47.234Z,30.60
2023-03-18T19:54:36.875Z,21.98
2023-03-18T19:57:07.082Z,21.70
2023-03-18T19:59:39.292Z,27.67
2023-03-18T20:02:22.234Z,24.33
2023-03-18T20:04:55.001Z,18.15
2023-03-18T20:07:25.895Z,13.27
2023-03-18T20:09:54.114Z,14.38
2023-03-18T20:12:33.601Z,17.30
2023-03-18T20:15:00.717Z,15.30
2023-03-18T20:17:38.394Z,20.95
2023-03-18T20:20:07.765Z,18.42
2023-03-18T20:22:37.614Z,21.95
2023-03-18T20:27:32.293Z,29.30
2023-03-18T20:29:59.324Z,26.08
2023-03-18T20:32:26.343Z,24.80
2023-03-18T20:34:53.318Z,13.95
2023-03-18T20:37:34.816Z,16.12
2023-03-18T20:40:07.485Z,12.30
2023-03-18T20:42:34.439Z,14.15
2023-03-18T20:45:01.409Z,13.82
2023-03-18T20:47:28.280Z,12.52
2023-03-18T20:49:55.759Z,12.77
2023-03-18T20:52:30.547Z,28.80
2023-03-18T20:54:58.136Z,29.23
2023-03-18T20:57:25.840Z,33.20
2023-03-18T20:59:53.228Z,31.67
2023-03-18T21:02:31.248Z,30.23
2023-03-18T21:04:59.297Z,25.60
2023-03-18T21:07:27.013Z,39.58
2023-03-18T21:09:54.567Z,37.85
2023-03-18T21:12:22.473Z,43.87
2023-03-18T21:14:50.225Z,52.08
2023-03-18T21:17:26.096Z,64.68
2023-03-18T21:19:55.320Z,81.63
2023-03-18T21:22:26.637Z,58.00
2023-03-18T21:24:53.868Z,73.78
2023-03-18T21:27:23.618Z,72.95
2023-03-18T21:29:52.337Z,89.60
2023-03-18T21:32:32.947Z,108.30
2023-03-18T21:35:00.178Z,78.75
2023-03-18T21:37:27.950Z,49.08
2023-03-18T21:39:55.067Z,42.92
2023-03-18T21:42:32.958Z,49.78
2023-03-18T21:45:02.363Z,39.35
2023-03-18T21:47:30.461Z,39.58
2023-03-18T21:49:57.589Z,48.70
2023-03-18T21:52:29.839Z,52.10
2023-03-18T21:54:57.371Z,52.30
2023-03-18T21:57:25.715Z,36.20
2023-03-18T22:00:02.702Z,30.65
2023-03-18T22:02:33.843Z,32.47
2023-03-18T22:05:03.793Z,39.22
2023-03-18T22:10:00.897Z,30.55
2023-03-18T22:12:31.115Z,32.42
2023-03-18T22:14:59.207Z,27.02
2023-03-18T22:17:32.066Z,36.08
2023-03-18T22:20:00.873Z,40.25
2023-03-18T22:22:36.940Z,27.87
2023-03-18T22:25:04.449Z,24.08
2023-03-18T22:27:32.480Z,32.35
2023-03-18T22:30:01.100Z,26.20
2023-03-18T22:32:44.755Z,16.05
2023-03-18T22:35:22.563Z,30.62
2023-03-18T22:37:50.058Z,28.65
2023-03-18T22:40:19.904Z,22.87
2023-03-18T22:45:25.110Z,23.00
2023-03-18T22:47:55.573Z,29.92
2023-03-18T22:50:23.924Z,21.62
2023-03-18T22:52:53.462Z,28.40
2023-03-18T22:55:23.154Z,36.05
2023-03-18T22:57:56.094Z,29.75
2023-03-18T23:00:37.536Z,30.48
2023-03-18T23:03:19.860Z,28.45
2023-03-18T23:05:50.324Z,23.45
2023-03-18T23:08:18.113Z,27.70
2023-03-18T23:10:46.202Z,31.20
2023-03-18T23:13:26.631Z,34.20
2023-03-18T23:15:54.250Z,38.42
2023-03-18T23:18:25.861Z,41.58
2023-03-18T23:20:53.282Z,56.20
2023-03-18T23:23:23.543Z,25.92
2023-03-18T23:25:59.575Z,16.58
2023-03-18T23:28:27.552Z,12.37
2023-03-18T23:30:55.135Z,14.85
2023-03-18T23:33:22.040Z,12.77
2023-03-18T23:35:48.994Z,14.40
2023-03-18T23:38:16.378Z,14.10
2023-03-18T23:40:44.567Z,11.60
2023-03-18T23:43:12.641Z,14.38
2023-03-18T23:45:40.027Z,17.42
2023-03-18T23:48:07.491Z,16.27
2023-03-18T23:50:35.133Z,19.00
2023-03-18T23:53:02.559Z,13.93
2023-03-18T23:55:36.718Z,17.87
2023-03-18T23:58:04.551Z,15.00
